Time;durP1;ratioP1;P1;durP2;ratioP2;P2;SDS_P1;SDS_P2;PMS_P1;PMS_P2;Temp;Humidity;BMP_temperature;BMP_pressure;BME280_temperature;BME280_humidity;BME280_pressure;Samples;Min_cycle;Max_cycle;Signal;HPM_P1;HPM_P2
2022/08/25 00:01:36;;;;;;;7.13;5.20;;;22.20;99.90;;;;;;5013300;28;20438;-81
2022/08/25 00:04:05;;;;;;;6.95;5.15;;;22.20;99.90;;;;;;5013539;28;20497;-81
2022/08/25 00:06:31;;;;;;;9.80;5.25;;;22.20;99.90;;;;;;5012893;28;20128;-82
2022/08/25 00:08:58;;;;;;;6.63;4.82;;;22.10;99.90;;;;;;5013186;28;20124;-81
2022/08/25 00:11:25;;;;;;;5.72;4.40;;;22.20;99.90;;;;;;5013078;28;20042;-81
2022/08/25 00:13:54;;;;;;;6.78;4.25;;;22.10;99.90;;;;;;5013155;28;20100;-82
2022/08/25 00:16:21;;;;;;;6.65;4.05;;;22.10;99.90;;;;;;5012998;28;20058;-81
2022/08/25 00:18:51;;;;;;;6.70;4.32;;;22.10;99.90;;;;;;5012892;28;20041;-81
2022/08/25 00:21:16;;;;;;;5.53;3.60;;;22.10;99.90;;;;;;5012816;28;20045;-81
2022/08/25 00:23:44;;;;;;;7.57;4.15;;;22.10;99.90;;;;;;5012186;28;20460;-82
2022/08/25 00:26:11;;;;;;;7.43;4.63;;;22.10;99.90;;;;;;4996781;28;20108;-81
2022/08/25 00:28:38;;;;;;;6.03;3.75;;;22.10;99.90;;;;;;4980468;28;20581;-81
2022/08/25 00:31:05;;;;;;;8.45;4.15;;;22.10;99.90;;;;;;5012920;28;20042;-81
2022/08/25 00:33:31;;;;;;;7.80;4.03;;;22.10;99.90;;;;;;5012228;28;20050;-81
2022/08/25 00:35:57;;;;;;;5.93;3.60;;;22.10;99.90;;;;;;4996511;28;20168;-81
2022/08/25 00:38:23;;;;;;;4.90;4.05;;;22.10;99.90;;;;;;4996240;28;20037;-81
2022/08/25 00:41:04;;;;;;;8.55;4.18;;;22.00;99.90;;;;;;5012807;28;20089;-81
2022/08/25 00:43:47;;;;;;;6.50;3.63;;;22.00;99.90;;;;;;5012277;28;20050;-81
2022/08/25 00:46:16;;;;;;;5.28;3.65;;;22.10;99.90;;;;;;5012928;28;20042;-82
2022/08/25 00:48:44;;;;;;;7.18;3.80;;;22.00;99.90;;;;;;5012453;28;20517;-81
2022/08/25 00:51:15;;;;;;;6.90;3.90;;;22.00;99.90;;;;;;5012373;28;20112;-81
2022/08/25 00:53:42;;;;;;;5.15;3.80;;;22.00;99.90;;;;;;5012057;28;20053;-82
2022/08/25 00:56:08;;;;;;;4.25;3.47;;;22.00;99.90;;;;;;5012301;28;20089;-81
2022/08/25 00:58:35;;;;;;;6.20;3.90;;;21.90;99.90;;;;;;5012374;28;20056;-81
2022/08/25 01:01:01;;;;;;;8.23;3.50;;;21.90;99.90;;;;;;4995678;28;20041;-81
2022/08/25 01:03:29;;;;;;;6.13;3.70;;;21.90;99.90;;;;;;4996149;28;20042;-81
2022/08/25 01:05:55;;;;;;;5.13;3.50;;;21.90;99.90;;;;;;5012164;28;20056;-81
2022/08/25 01:08:25;;;;;;;7.65;3.60;;;21.80;99.90;;;;;;5012337;28;20774;-81
2022/08/25 01:10:50;;;;;;;4.72;3.70;;;21.80;99.90;;;;;;5011963;28;20038;-81
2022/08/25 01:13:25;;;;;;;8.02;3.72;;;21.80;99.90;;;;;;5011949;28;20049;-82
2022/08/25 01:15:54;;;;;;;9.32;3.70;;;21.80;99.90;;;;;;5011878;28;20045;-81
2022/08/25 01:18:20;;;;;;;5.55;3.45;;;21.70;99.90;;;;;;5011945;28;20073;-81
2022/08/25 01:21:04;;;;;;;6.90;3.80;;;21.70;99.90;;;;;;4995227;28;20037;-81
2022/08/25 01:23:30;;;;;;;5.72;3.83;;;21.70;99.90;;;;;;5011886;28;20497;-81
2022/08/25 01:26:14;;;;;;;6.25;3.75;;;21.60;99.90;;;;;;5011835;28;20074;-81
2022/08/25 01:29:19;;;;;;;6.78;3.60;;;21.60;99.90;;;;;;5011634;28;20041;-81
2022/08/25 01:31:28;;;;;;;6.88;4.28;;;21.60;99.90;;;;;;5011584;28;20100;-81
2022/08/25 01:33:55;;;;;;;4.55;3.55;;;21.60;99.90;;;;;;5011408;28;20133;-82
2022/08/25 01:36:22;;;;;;;6.28;3.75;;;21.50;99.90;;;;;;4994779;28;20073;-81
2022/08/25 01:38:48;;;;;;;5.68;3.70;;;21.50;99.90;;;;;;5011751;28;20045;-81
2022/08/25 01:41:38;;;;;;;5.75;4.20;;;21.40;99.90;;;;;;4995157;28;20071;-81
2022/08/25 01:44:05;;;;;;;8.13;4.15;;;21.40;99.90;;;;;;4984079;28;20046;-81
2022/08/25 01:46:31;;;;;;;6.22;3.60;;;21.40;99.90;;;;;;4995458;28;20057;-81
2022/08/25 01:48:59;;;;;;;6.90;3.75;;;21.30;99.90;;;;;;4995188;28;20046;-81
2022/08/25 01:51:28;;;;;;;9.30;4.20;;;21.30;99.90;;;;;;4994949;28;20053;-81
2022/08/25 01:53:54;;;;;;;9.57;4.13;;;21.30;99.90;;;;;;5011660;28;20073;-81
2022/08/25 01:56:20;;;;;;;7.72;3.97;;;21.30;99.90;;;;;;5011082;28;20104;-81
2022/08/25 01:58:48;;;;;;;5.35;3.80;;;21.20;99.90;;;;;;5011189;28;20103;-82
2022/08/25 02:01:20;;;;;;;6.30;3.75;;;21.20;99.90;;;;;;5011457;28;20188;-82
2022/08/25 02:03:48;;;;;;;6.97;3.97;;;21.20;99.90;;;;;;5011002;28;20048;-81
2022/08/25 02:06:17;;;;;;;6.63;3.75;;;21.10;99.90;;;;;;5011161;28;20041;-81
2022/08/25 02:08:43;;;;;;;5.80;4.20;;;21.10;99.90;;;;;;5011065;28;20179;-81
2022/08/25 02:11:13;;;;;;;5.72;3.63;;;21.10;99.90;;;;;;5011139;28;20061;-81
2022/08/25 02:13:40;;;;;;;7.75;4.22;;;21.00;99.90;;;;;;5010786;28;20042;-81
2022/08/25 02:16:08;;;;;;;5.72;3.55;;;21.00;99.90;;;;;;5010992;28;20034;-81
2022/08/25 02:18:33;;;;;;;4.97;3.55;;;21.10;99.90;;;;;;5011138;28;20069;-81
2022/08/25 02:20:59;;;;;;;4.57;3.47;;;21.00;99.90;;;;;;5011033;28;20065;-81
2022/08/25 02:23:25;;;;;;;7.68;4.20;;;21.00;99.90;;;;;;5011159;28;20080;-81
2022/08/25 02:25:51;;;;;;;5.57;3.20;;;21.00;99.90;;;;;;5010969;28;20046;-81
2022/08/25 02:28:17;;;;;;;5.78;3.78;;;21.00;99.90;;;;;;5011037;28;20049;-81
2022/08/25 02:30:44;;;;;;;7.13;3.33;;;20.90;99.90;;;;;;4994727;28;20046;-81
2022/08/25 02:33:10;;;;;;;6.18;3.90;;;20.90;99.90;;;;;;5011046;28;20077;-81
2022/08/25 02:35:36;;;;;;;5.03;3.30;;;20.90;99.90;;;;;;5010807;28;20497;-81
2022/08/25 02:38:03;;;;;;;5.47;3.25;;;20.90;99.90;;;;;;5011009;28;20037;-81
2022/08/25 02:40:29;;;;;;;7.22;3.38;;;20.90;99.90;;;;;;5011109;28;20034;-81
2022/08/25 02:42:56;;;;;;;5.95;3.60;;;20.90;99.90;;;;;;4994547;28;20087;-81
2022/08/25 02:45:22;;;;;;;4.07;3.40;;;20.90;99.90;;;;;;5010767;28;20058;-81
2022/08/25 02:47:48;;;;;;;7.57;3.50;;;20.80;99.90;;;;;;4981506;28;20399;-81
2022/08/25 02:50:13;;;;;;;7.13;3.38;;;20.80;99.90;;;;;;4998667;28;20050;-81
2022/08/25 02:52:40;;;;;;;8.27;3.50;;;20.70;99.90;;;;;;5014443;28;20046;-81
2022/08/25 02:55:07;;;;;;;;;;;20.70;99.90;;;;;;5015013;28;20486;-81
2022/08/25 02:57:33;;;;;;;7.07;3.90;;;20.70;99.90;;;;;;5014785;28;19918;-81
2022/08/25 02:59:58;;;;;;;7.25;3.78;;;20.70;99.90;;;;;;5014798;28;20037;-81
2022/08/25 03:02:25;;;;;;;5.95;3.78;;;20.60;99.90;;;;;;5014325;28;20064;-81
2022/08/25 03:04:52;;;;;;;7.03;3.70;;;20.60;99.90;;;;;;5014331;28;20046;-81
2022/08/25 03:07:19;;;;;;;7.00;3.40;;;20.60;99.90;;;;;;5014301;28;20042;-81
2022/08/25 03:09:45;;;;;;;6.93;3.63;;;20.60;99.90;;;;;;5014189;28;20042;-81
2022/08/25 03:12:11;;;;;;;6.53;3.55;;;20.60;99.90;;;;;;5014154;28;20595;-81
2022/08/25 03:14:38;;;;;;;5.57;3.58;;;20.50;99.90;;;;;;5014407;28;20366;-81
2022/08/25 03:17:04;;;;;;;7.35;3.40;;;20.50;99.90;;;;;;4998041;28;20045;-81
2022/08/25 03:19:30;;;;;;;7.22;3.60;;;20.50;99.90;;;;;;5013977;28;20046;-81
2022/08/25 03:21:56;;;;;;;6.65;3.60;;;20.50;99.90;;;;;;5014321;28;20033;-81
2022/08/25 03:24:23;;;;;;;7.38;3.45;;;20.40;99.90;;;;;;4997827;28;20042;-81
2022/08/25 03:26:54;;;;;;;5.57;3.63;;;20.40;99.90;;;;;;5013956;28;20046;-81
2022/08/25 03:29:23;;;;;;;4.68;3.72;;;20.40;99.90;;;;;;5013889;28;20045;-81
2022/08/25 03:31:50;;;;;;;5.53;3.80;;;20.30;99.90;;;;;;4997622;28;20064;-81
2022/08/25 03:34:17;;;;;;;5.90;3.83;;;20.30;99.90;;;;;;5013790;28;20071;-81
2022/08/25 03:36:45;;;;;;;5.70;3.75;;;20.30;99.90;;;;;;4997228;28;20038;-81
2022/08/25 03:39:11;;;;;;;5.53;3.80;;;20.30;99.90;;;;;;5013678;28;20050;-81
2022/08/25 03:41:37;;;;;;;6.70;3.85;;;20.20;99.90;;;;;;5013822;28;20510;-81
2022/08/25 03:44:06;;;;;;;8.65;3.95;;;20.20;99.90;;;;;;5014007;28;20053;-81
2022/08/25 03:46:36;;;;;;;5.38;3.40;;;20.20;99.90;;;;;;5013163;28;20100;-81
2022/08/25 03:49:05;;;;;;;6.22;4.00;;;20.20;99.90;;;;;;5013493;28;20049;-81
2022/08/25 03:51:39;;;;;;;7.32;3.95;;;20.10;99.90;;;;;;5013311;28;20033;-81
2022/08/25 03:54:05;;;;;;;7.47;3.90;;;20.10;99.90;;;;;;4997059;28;20469;-81
2022/08/25 03:56:31;;;;;;;6.25;3.83;;;20.10;99.90;;;;;;5013039;28;20539;-81
2022/08/25 03:58:57;;;;;;;6.82;3.53;;;20.00;99.90;;;;;;5012594;28;20077;-82
2022/08/25 04:01:24;;;;;;;5.25;3.33;;;20.00;99.90;;;;;;5013342;28;20076;-81
2022/08/25 04:03:49;;;;;;;;;;;20.00;99.90;;;;;;5013668;28;20208;-81
2022/08/25 04:06:17;;;;;;;8.15;4.18;;;19.90;99.90;;;;;;5013551;28;19976;-81
2022/08/25 04:08:43;;;;;;;4.82;3.88;;;19.90;99.90;;;;;;4996912;28;20454;-81
2022/08/25 04:11:16;;;;;;;5.97;3.85;;;19.90;99.90;;;;;;5013345;28;20131;-81
2022/08/25 04:13:44;;;;;;;7.03;3.63;;;19.90;99.90;;;;;;5012991;28;20045;-81
2022/08/25 04:16:16;;;;;;;6.20;4.07;;;19.90;99.90;;;;;;5013148;28;20038;-81
2022/08/25 04:18:42;;;;;;;7.13;3.63;;;19.90;99.90;;;;;;5012897;28;20124;-81
2022/08/25 04:21:09;;;;;;;6.78;4.30;;;19.80;99.90;;;;;;5013109;28;20387;-81
2022/08/25 04:23:36;;;;;;;5.07;3.80;;;19.80;99.90;;;;;;5012721;28;20038;-81
2022/08/25 04:26:08;;;;;;;7.07;4.07;;;19.80;99.90;;;;;;5012975;28;20053;-81
2022/08/25 04:28:34;;;;;;;5.15;3.72;;;19.80;99.90;;;;;;5012629;28;20046;-81
2022/08/25 04:30:59;;;;;;;7.63;3.90;;;19.70;99.90;;;;;;5012774;28;20048;-81
2022/08/25 04:33:25;;;;;;;6.80;4.00;;;19.70;99.90;;;;;;5012684;28;20104;-81
2022/08/25 04:35:51;;;;;;;7.90;4.30;;;19.70;99.90;;;;;;5012841;28;20132;-81
2022/08/25 04:38:16;;;;;;;7.10;3.55;;;19.70;99.90;;;;;;5012694;28;20080;-81
2022/08/25 04:40:42;;;;;;;5.85;3.63;;;19.70;99.90;;;;;;5012855;28;20038;-81
2022/08/25 04:43:08;;;;;;;7.53;4.05;;;19.70;99.90;;;;;;4996285;28;20045;-82
2022/08/25 04:45:39;;;;;;;6.38;3.80;;;19.70;99.90;;;;;;5012325;28;20053;-81
2022/08/25 04:48:05;;;;;;;10.40;4.00;;;19.70;99.90;;;;;;5012449;28;20056;-81
2022/08/25 04:50:31;;;;;;;5.43;4.00;;;19.70;99.90;;;;;;5012185;28;20049;-81
2022/08/25 04:52:57;;;;;;;6.85;4.10;;;19.70;99.90;;;;;;5012542;28;20042;-81
2022/08/25 04:55:23;;;;;;;6.10;4.00;;;19.60;99.90;;;;;;5012215;28;20057;-81
2022/08/25 04:57:48;;;;;;;8.90;4.47;;;19.60;99.90;;;;;;5012485;28;20077;-81
2022/08/25 05:00:15;;;;;;;7.78;4.57;;;19.60;99.90;;;;;;5012227;28;20414;-81
2022/08/25 05:02:40;;;;;;;6.47;4.22;;;19.60;99.90;;;;;;5012309;28;20061;-81
2022/08/25 05:05:06;;;;;;;9.43;5.00;;;19.60;99.90;;;;;;5012410;28;20045;-81
2022/08/25 05:07:32;;;;;;;7.35;5.00;;;19.60;99.90;;;;;;5011871;28;20088;-81
2022/08/25 05:09:58;;;;;;;9.32;4.82;;;19.60;99.90;;;;;;5012178;28;20081;-82
2022/08/25 05:12:23;;;;;;;6.68;5.40;;;19.50;99.90;;;;;;5011996;28;20050;-81
2022/08/25 05:14:52;;;;;;;7.90;5.03;;;19.50;99.90;;;;;;5012048;28;20489;-81
2022/08/25 05:17:18;;;;;;;7.55;5.20;;;19.60;99.90;;;;;;5011941;28;20038;-81
2022/08/25 05:19:43;;;;;;;9.45;5.30;;;19.60;99.90;;;;;;5011902;28;20042;-81
2022/08/25 05:22:09;;;;;;;10.05;5.65;;;19.60;99.90;;;;;;5012176;28;20405;-81
2022/08/25 05:24:35;;;;;;;6.82;5.05;;;19.60;99.90;;;;;;5011805;28;20084;-81
2022/08/25 05:27:02;;;;;;;9.40;4.97;;;19.70;99.90;;;;;;5012024;28;20049;-81
2022/08/25 05:29:27;;;;;;;7.53;5.22;;;19.70;99.90;;;;;;4995532;28;20046;-81
2022/08/25 05:31:53;;;;;;;8.20;5.53;;;19.70;99.90;;;;;;5011975;28;20402;-81
2022/08/25 05:34:20;;;;;;;8.65;5.22;;;19.70;99.90;;;;;;4995387;28;20046;-81
2022/08/25 05:36:47;;;;;;;10.07;5.30;;;19.80;99.90;;;;;;5011736;28;20038;-81
2022/08/25 05:39:13;;;;;;;9.25;5.28;;;19.80;99.90;;;;;;5011792;28;20041;-81
2022/08/25 05:41:39;;;;;;;7.55;5.55;;;19.90;99.90;;;;;;5011480;28;20037;-81
2022/08/25 05:44:05;;;;;;;7.65;5.25;;;19.90;99.90;;;;;;5011838;28;20409;-81
2022/08/25 05:46:30;;;;;;;7.63;4.82;;;20.00;99.90;;;;;;5011216;28;20045;-81
2022/08/25 05:48:56;;;;;;;11.73;5.47;;;20.00;99.90;;;;;;4995204;28;20464;-81
2022/08/25 05:51:22;;;;;;;10.30;5.13;;;20.10;99.90;;;;;;4995084;28;20453;-81
2022/08/25 05:53:49;;;;;;;9.18;5.55;;;20.20;99.90;;;;;;4994999;28;20064;-81
2022/08/25 05:56:15;;;;;;;9.15;5.10;;;20.30;99.90;;;;;;5011290;28;20092;-81
2022/08/25 05:58:42;;;;;;;;;;;20.40;99.90;;;;;;5011567;28;20050;-81
2022/08/25 06:03:53;;;;;;;5.68;4.53;;;20.60;99.90;;;;;;5011353;28;20054;-82
2022/08/25 06:06:21;;;;;;;7.72;5.10;;;20.80;99.90;;;;;;4995096;28;20099;-81
2022/08/25 06:08:47;;;;;;;8.00;4.72;;;20.90;99.90;;;;;;5011113;28;20041;-81
2022/08/25 06:11:14;;;;;;;7.40;4.95;;;20.90;99.90;;;;;;5011470;28;20140;-81
2022/08/25 06:13:39;;;;;;;9.00;4.70;;;21.00;99.90;;;;;;5010859;28;20053;-81
2022/08/25 06:16:05;;;;;;;7.88;4.60;;;21.10;99.90;;;;;;5011438;28;20038;-81
2022/08/25 06:18:31;;;;;;;6.65;4.70;;;21.20;99.90;;;;;;5010953;28;20042;-81
2022/08/25 06:20:57;;;;;;;8.70;4.93;;;21.30;99.90;;;;;;5012751;28;20073;-81
2022/08/25 06:23:23;;;;;;;6.05;4.53;;;21.40;99.90;;;;;;5017590;28;20505;-81
2022/08/25 06:25:50;;;;;;;7.47;4.72;;;21.40;99.90;;;;;;5017541;28;20409;-81
2022/08/25 06:28:16;;;;;;;8.55;4.90;;;21.50;99.90;;;;;;5001410;28;20046;-81
2022/08/25 06:30:41;;;;;;;9.48;4.93;;;21.60;99.90;;;;;;5000871;28;20617;-81
2022/08/25 06:33:07;;;;;;;5.85;5.03;;;21.70;99.90;;;;;;5017496;28;20712;-81
2022/08/25 06:35:33;;;;;;;10.88;4.78;;;21.70;99.90;;;;;;5001088;28;20045;-82
2022/08/25 06:37:59;;;;;;;6.60;4.72;;;21.90;99.90;;;;;;5001191;28;20069;-82
2022/08/25 06:40:25;;;;;;;9.27;5.20;;;22.00;99.90;;;;;;5017402;28;20045;-81
2022/08/25 06:42:50;;;;;;;6.80;4.50;;;22.20;99.90;;;;;;5017435;28;20124;-82
2022/08/25 06:45:17;;;;;;;7.43;5.47;;;22.50;99.90;;;;;;5017665;28;20042;-81
2022/08/25 06:47:43;;;;;;;7.63;4.88;;;22.90;99.90;;;;;;5017696;28;20640;-81
2022/08/25 06:50:09;;;;;;;8.02;4.70;;;23.40;99.90;;;;;;5001041;28;20045;-82
2022/08/25 06:52:35;;;;;;;5.97;4.28;;;24.00;99.90;;;;;;5017048;28;20045;-82
2022/08/25 06:55:00;;;;;;;;;;;24.50;99.90;;;;;;5017596;28;20042;-81
2022/08/25 06:57:26;;;;;;;8.40;4.63;;;24.70;99.90;;;;;;5017272;28;19924;-82
2022/08/25 06:59:52;;;;;;;;;;;25.10;99.90;;;;;;5018133;28;20037;-82
2022/08/25 07:02:19;;;;;;;8.25;4.80;;;25.20;99.90;;;;;;5017224;28;19924;-82
2022/08/25 07:04:45;;;;;;;10.00;4.40;;;25.40;99.90;;;;;;5017127;28;20046;-82
2022/08/25 07:07:10;;;;;;;;;;;25.60;99.90;;;;;;5017732;28;20524;-82
2022/08/25 07:09:36;;;;;;;7.38;4.57;;;25.80;99.90;;;;;;5000820;28;20317;-82
2022/08/25 07:12:03;;;;;;;;;;;26.00;99.90;;;;;;5001220;28;20056;-82
2022/08/25 07:14:29;;;;;;;7.07;3.92;;;26.20;99.40;;;;;;5017020;28;19921;-82
2022/08/25 07:16:54;;;;;;;;;;;26.50;99.00;;;;;;5001534;28;20545;-82
2022/08/25 07:19:20;;;;;;;6.30;4.45;;;26.70;99.30;;;;;;5017068;28;19924;-82
2022/08/25 07:21:48;;;;;;;7.35;4.28;;;26.90;99.00;;;;;;5017027;28;20041;-82
2022/08/25 07:24:14;;;;;;;7.80;4.28;;;27.10;99.60;;;;;;5016802;28;20046;-82
2022/08/25 07:26:41;;;;;;;6.82;4.25;;;27.30;99.00;;;;;;5000482;28;20056;-82
2022/08/25 07:29:14;;;;;;;5.93;4.15;;;27.40;98.00;;;;;;5017030;28;20096;-82
2022/08/25 07:31:40;;;;;;;5.95;3.92;;;27.50;98.10;;;;;;5017073;28;20512;-82
2022/08/25 07:36:51;;;;;;;6.57;4.53;;;27.70;98.00;;;;;;5013718;28;20092;-82
2022/08/25 07:39:17;;;;;;;6.78;4.25;;;27.70;98.00;;;;;;4997720;28;20449;-82
2022/08/25 07:41:42;;;;;;;7.78;4.28;;;27.70;97.90;;;;;;5013365;28;20042;-82
2022/08/25 07:44:10;;;;;;;8.90;4.32;;;27.80;97.10;;;;;;5013669;28;20091;-82
2022/08/25 07:46:37;;;;;;;5.95;3.95;;;27.90;97.60;;;;;;5013926;28;20044;-83
2022/08/25 07:49:03;;;;;;;6.20;3.60;;;27.80;97.20;;;;;;5013682;28;20116;-83
2022/08/25 07:51:29;;;;;;;7.05;4.03;;;28.10;97.10;;;;;;5013607;28;20050;-83
2022/08/25 07:53:55;;;;;;;6.13;3.63;;;28.20;96.90;;;;;;4997321;28;20405;-83
2022/08/25 07:56:21;;;;;;;5.80;3.72;;;28.30;97.20;;;;;;5013408;28;20502;-83
2022/08/25 07:58:47;;;;;;;10.05;4.07;;;28.60;96.60;;;;;;5013571;28;20034;-83
2022/08/25 08:01:18;;;;;;;5.75;3.88;;;28.60;96.90;;;;;;5013466;28;20060;-83
2022/08/25 08:03:44;;;;;;;7.90;3.75;;;28.80;97.20;;;;;;5013118;28;20042;-83
2022/08/25 08:06:12;;;;;;;6.82;3.85;;;29.10;96.40;;;;;;5013439;28;20347;-83
2022/08/25 08:08:44;;;;;;;5.68;3.50;;;29.30;96.40;;;;;;4996845;28;20142;-83
2022/08/25 08:11:39;;;;;;;6.00;4.00;;;29.40;96.00;;;;;;4981048;28;20077;-83
2022/08/25 08:14:07;;;;;;;7.38;3.90;;;29.50;95.80;;;;;;5012980;28;20042;-83
2022/08/25 08:16:33;;;;;;;8.18;3.55;;;29.80;96.30;;;;;;5013093;28;20459;-83
2022/08/25 08:18:59;;;;;;;6.13;3.50;;;30.00;95.90;;;;;;5013485;28;20406;-83
2022/08/25 08:21:32;;;;;;;4.85;3.63;;;30.00;95.40;;;;;;5013322;28;20049;-83
2022/08/25 08:23:58;;;;;;;6.90;3.30;;;30.00;95.70;;;;;;5012969;28;20041;-83
2022/08/25 08:26:25;;;;;;;10.65;3.90;;;30.30;95.50;;;;;;5013379;28;20379;-83
2022/08/25 08:28:50;;;;;;;4.72;3.35;;;30.60;95.90;;;;;;4996480;28;20674;-83
2022/08/25 08:31:20;;;;;;;7.20;3.58;;;30.60;94.90;;;;;;5012667;28;20080;-83
2022/08/25 08:33:47;;;;;;;4.63;3.42;;;30.50;95.20;;;;;;5012416;28;20045;-83
2022/08/25 08:36:13;;;;;;;7.07;3.70;;;30.60;95.60;;;;;;5013036;28;20034;-84
2022/08/25 08:38:40;;;;;;;5.45;3.70;;;30.70;95.30;;;;;;4996234;28;20135;-83
2022/08/25 08:44:49;;;;;;;6.38;3.47;;;31.10;94.70;;;;;;5012262;28;20548;-83
2022/08/25 08:47:51;;;;;;;6.00;3.33;;;31.40;94.30;;;;;;5011691;28;20056;-84
2022/08/25 08:50:25;;;;;;;5.93;3.47;;;31.50;94.20;;;;;;5012599;28;20085;-83
2022/08/25 08:53:24;;;;;;;6.13;3.20;;;31.70;94.60;;;;;;5012519;28;20489;-80
2022/08/25 08:56:14;;;;;;;5.63;3.67;;;31.90;94.20;;;;;;4985040;28;20115;-80
2022/08/25 08:58:47;;;;;;;7.95;3.60;;;32.00;94.10;;;;;;5012544;28;20041;-80
2022/08/25 09:01:22;;;;;;;5.38;3.50;;;32.30;93.90;;;;;;5012440;28;20038;-80
2022/08/25 09:04:14;;;;;;;6.55;3.10;;;32.40;93.30;;;;;;5012142;28;20049;-80
2022/08/25 09:06:43;;;;;;;7.38;3.17;;;32.50;93.50;;;;;;5028532;28;20054;-80
2022/08/25 09:09:13;;;;;;;5.85;2.85;;;32.60;93.20;;;;;;4995739;28;20037;-80
2022/08/25 09:11:48;;;;;;;5.32;3.20;;;32.60;93.00;;;;;;5012439;28;20072;-80
2022/08/25 09:14:32;;;;;;;4.35;3.00;;;33.00;92.90;;;;;;5012121;28;20049;-80
2022/08/25 09:17:20;;;;;;;4.38;3.45;;;33.10;93.20;;;;;;5012112;28;20034;-80
2022/08/25 09:19:55;;;;;;;5.70;3.08;;;33.00;92.90;;;;;;5012182;28;20113;-80
2022/08/25 09:22:35;;;;;;;7.72;2.90;;;33.00;93.30;;;;;;5012381;28;20508;-80
2022/08/25 09:25:10;;;;;;;5.88;2.80;;;33.20;92.90;;;;;;5012125;28;20045;-80
2022/08/25 09:27:53;;;;;;;6.35;2.90;;;33.50;93.00;;;;;;5011653;28;20046;-80
2022/08/25 09:30:20;;;;;;;9.05;2.95;;;33.80;92.80;;;;;;5012124;28;20083;-80
2022/08/25 09:33:03;;;;;;;5.28;2.83;;;34.20;92.50;;;;;;5011956;28;20049;-80
2022/08/25 09:35:38;;;;;;;6.32;2.92;;;34.40;91.80;;;;;;5012070;28;20092;-80
2022/08/25 09:38:06;;;;;;;7.87;2.60;;;34.20;91.30;;;;;;5012044;28;20100;-80
2022/08/25 09:40:42;;;;;;;3.65;2.40;;;34.50;91.50;;;;;;4995462;28;20279;-81
2022/08/25 09:43:30;;;;;;;6.78;3.00;;;34.40;91.10;;;;;;5011896;28;20128;-80
2022/08/25 09:46:26;;;;;;;4.65;2.85;;;34.60;91.20;;;;;;5011965;28;20546;-80
2022/08/25 09:49:09;;;;;;;4.70;2.50;;;34.90;90.70;;;;;;5011963;28;20389;-81
2022/08/25 09:51:40;;;;;;;4.65;2.08;;;35.00;91.30;;;;;;5011970;28;20124;-80
2022/08/25 09:54:12;;;;;;;4.00;2.90;;;35.10;90.90;;;;;;5011698;28;20042;-80
2022/08/25 09:56:51;;;;;;;6.15;2.28;;;35.10;90.40;;;;;;5010587;28;20085;-80
2022/08/25 09:59:20;;;;;;;4.18;2.42;;;35.50;90.70;;;;;;5011502;28;20054;-81
2022/08/25 10:01:55;;;;;;;3.60;2.50;;;36.00;90.50;;;;;;5011607;28;20076;-80
2022/08/25 10:04:36;;;;;;;4.38;2.10;;;36.10;89.10;;;;;;5012142;28;20500;-81
2022/08/25 10:07:17;;;;;;;6.40;2.45;;;35.50;88.90;;;;;;5011429;28;20081;-80
2022/08/25 10:09:52;;;;;;;3.85;2.03;;;35.40;88.60;;;;;;5011420;28;20052;-80
2022/08/25 10:12:23;;;;;;;2.85;2.00;;;35.40;89.20;;;;;;5011623;28;20041;-80
2022/08/25 10:14:49;;;;;;;3.28;2.13;;;35.50;88.70;;;;;;5011122;28;20045;-80
2022/08/25 10:17:23;;;;;;;3.85;2.15;;;35.50;88.70;;;;;;5011343;28;20133;-80
2022/08/25 10:19:50;;;;;;;3.33;1.90;;;35.30;87.70;;;;;;5011232;28;20044;-80
2022/08/25 10:22:24;;;;;;;7.65;2.30;;;35.30;87.10;;;;;;5011361;28;20037;-80
2022/08/25 10:24:50;;;;;;;3.47;1.98;;;35.20;87.20;;;;;;4995249;28;20041;-80
2022/08/25 10:27:19;;;;;;;4.07;1.85;;;35.20;86.80;;;;;;4995020;28;20042;-80
2022/08/25 10:30:09;;;;;;;4.97;1.92;;;35.40;87.10;;;;;;5011084;28;20577;-80
2022/08/25 10:32:50;;;;;;;4.75;1.80;;;35.60;86.60;;;;;;5011129;28;20123;-80
2022/08/25 10:35:21;;;;;;;4.13;1.80;;;35.90;86.10;;;;;;5011458;28;20038;-80
2022/08/25 10:38:23;;;;;;;4.03;2.00;;;36.10;86.90;;;;;;5011157;28;20042;-80
2022/08/25 10:40:59;;;;;;;3.05;1.92;;;36.40;85.80;;;;;;5010790;28;20103;-80
2022/08/25 10:43:43;;;;;;;4.38;2.03;;;36.40;85.60;;;;;;5011348;28;20057;-80
2022/08/25 10:46:18;;;;;;;2.35;1.70;;;36.40;84.70;;;;;;5011024;28;20046;-80
2022/08/25 10:48:46;;;;;;;4.70;2.38;;;36.30;85.00;;;;;;5010798;28;20050;-80
2022/08/25 10:51:27;;;;;;;6.05;2.13;;;36.50;85.60;;;;;;5011201;28;20092;-80
2022/08/25 10:54:26;;;;;;;6.10;2.20;;;36.60;85.40;;;;;;5010816;28;20490;-80
2022/08/25 10:57:20;;;;;;;3.10;2.10;;;36.60;85.10;;;;;;5010331;28;20568;-80
2022/08/25 11:00:02;;;;;;;4.03;2.08;;;36.90;84.00;;;;;;5011086;28;20045;-80
2022/08/25 11:02:52;;;;;;;2.92;2.03;;;37.00;84.50;;;;;;5010970;28;20104;-80
2022/08/25 11:05:24;;;;;;;6.43;2.00;;;36.60;83.90;;;;;;5011205;28;20397;-80
2022/08/25 11:07:55;;;;;;;5.82;2.30;;;36.40;84.70;;;;;;5012621;28;20485;-80
2022/08/25 11:10:36;;;;;;;9.50;2.28;;;36.80;84.70;;;;;;5014557;28;20050;-80
2022/08/25 11:13:09;;;;;;;5.60;2.03;;;37.00;84.50;;;;;;5014496;28;20046;-80
2022/08/25 11:15:57;;;;;;;3.47;2.20;;;37.00;83.90;;;;;;5014459;28;20042;-81
2022/08/25 11:18:27;;;;;;;5.63;2.28;;;36.80;83.90;;;;;;5014158;28;20100;-80
2022/08/25 11:21:02;;;;;;;3.90;1.80;;;36.80;84.50;;;;;;5014324;28;20104;-80
2022/08/25 11:23:38;;;;;;;;;;;37.00;83.40;;;;;;5014816;28;20041;-80
2022/08/25 11:26:13;;;;;;;4.80;1.80;;;36.80;82.80;;;;;;5014514;28;19921;-80
2022/08/25 11:29:12;;;;;;;3.80;1.90;;;37.30;83.40;;;;;;5014219;28;20128;-80
2022/08/25 11:31:45;;;;;;;5.43;1.92;;;37.40;82.60;;;;;;5013897;28;20053;-80
2022/08/25 11:34:15;;;;;;;6.13;2.28;;;37.50;82.70;;;;;;4997798;28;20038;-80
2022/08/25 11:36:47;;;;;;;3.65;1.90;;;37.50;82.50;;;;;;5014586;28;20130;-80
2022/08/25 11:39:47;;;;;;;2.97;1.70;;;37.70;82.00;;;;;;5013915;28;20120;-80
2022/08/25 11:42:24;;;;;;;3.90;1.63;;;37.90;81.60;;;;;;5014250;28;20045;-81
2022/08/25 11:44:59;;;;;;;4.15;1.70;;;38.10;81.10;;;;;;5013852;28;20050;-80
2022/08/25 11:47:54;;;;;;;3.92;1.88;;;38.00;81.30;;;;;;5013741;28;20046;-81
2022/08/25 11:50:35;;;;;;;2.80;1.80;;;37.80;80.80;;;;;;5013747;28;20111;-81
2022/08/25 11:53:25;;;;;;;2.72;2.05;;;37.90;81.10;;;;;;5013818;28;20054;-80
2022/08/25 11:55:54;;;;;;;4.35;1.95;;;37.60;82.40;;;;;;5013602;28;20066;-80
2022/08/25 11:58:31;;;;;;;4.13;2.20;;;37.80;82.30;;;;;;5030490;28;20048;-81
2022/08/25 12:01:00;;;;;;;4.68;1.92;;;38.10;80.90;;;;;;4997624;28;20470;-80
2022/08/25 12:03:35;;;;;;;3.42;1.60;;;38.00;80.70;;;;;;5013769;28;20379;-81
2022/08/25 12:06:28;;;;;;;2.33;1.90;;;38.30;80.20;;;;;;5013546;28;20046;-81
2022/08/25 12:09:01;;;;;;;5.35;1.70;;;38.30;80.20;;;;;;5006102;28;20053;-80
2022/08/25 12:11:49;;;;;;;4.20;1.67;;;38.50;80.60;;;;;;5013296;28;20046;-81
2022/08/25 12:14:23;;;;;;;4.30;1.88;;;38.80;80.20;;;;;;5013550;28;20054;-81
2022/08/25 12:16:59;;;;;;;5.47;1.98;;;38.40;79.60;;;;;;5013391;28;20037;-81
2022/08/25 12:19:33;;;;;;;3.08;1.80;;;38.30;79.30;;;;;;5012573;28;20490;-81
2022/08/25 12:22:02;;;;;;;4.10;1.70;;;38.60;79.50;;;;;;5013583;28;20368;-81
2022/08/25 12:24:52;;;;;;;4.05;1.67;;;38.70;79.20;;;;;;5013381;28;21008;-81
2022/08/25 12:27:30;;;;;;;5.80;2.03;;;38.30;79.10;;;;;;5013330;28;20085;-81
2022/08/25 12:30:12;;;;;;;3.08;2.10;;;38.10;80.10;;;;;;5012927;28;20124;-81
2022/08/25 12:32:44;;;;;;;3.65;1.63;;;38.00;79.20;;;;;;5012731;28;20045;-81
2022/08/25 12:36:00;;;;;;;4.88;2.20;;;37.70;80.40;;;;;;5012778;28;20422;-81
2022/08/25 12:38:47;;;;;;;4.40;2.00;;;38.10;79.90;;;;;;4957025;28;20613;-81
2022/08/25 12:41:20;;;;;;;3.58;1.88;;;38.20;79.90;;;;;;4956934;28;20074;-81
2022/08/25 12:43:52;;;;;;;4.40;1.90;;;38.60;79.40;;;;;;4997775;28;20060;-81
2022/08/25 12:46:26;;;;;;;5.32;1.70;;;39.00;77.40;;;;;;4996643;28;20041;-81
2022/08/25 12:49:05;;;;;;;3.85;2.15;;;39.00;77.20;;;;;;5012803;28;20089;-81
2022/08/25 12:51:50;;;;;;;4.45;1.95;;;39.40;77.40;;;;;;5012660;28;20085;-81
2022/08/25 12:54:37;;;;;;;3.88;1.67;;;39.00;78.60;;;;;;5012597;28;20515;-81
2022/08/25 12:57:13;;;;;;;3.05;1.70;;;39.20;78.20;;;;;;5012909;28;20065;-81
2022/08/25 12:59:42;;;;;;;4.70;2.20;;;39.20;78.60;;;;;;5012353;28;20149;-81
2022/08/25 13:02:47;;;;;;;2.55;1.95;;;38.80;78.30;;;;;;5012747;28;20490;-81
2022/08/25 13:05:35;;;;;;;4.85;2.08;;;38.50;79.20;;;;;;5012466;28;20046;-81
2022/08/25 13:08:39;;;;;;;2.58;1.70;;;38.10;78.10;;;;;;5012314;28;20034;-81
2022/08/25 13:11:14;;;;;;;3.65;2.00;;;37.80;77.60;;;;;;4956296;28;20042;-81
2022/08/25 13:13:51;;;;;;;;;;;38.20;77.20;;;;;;4956212;28;20524;-81
2022/08/25 13:16:21;;;;;;;3.42;1.73;;;38.50;77.50;;;;;;5005176;28;19917;-81
2022/08/25 13:18:47;;;;;;;2.60;1.67;;;38.70;76.80;;;;;;4995697;28;20042;-81